createdAt,value
2019-01-17T00:00:11.716Z,19.70
2019-01-17T00:02:42.589Z,19.77
2019-01-17T00:05:16.237Z,18.63
2019-01-17T00:08:00.152Z,20.27
2019-01-17T00:10:47.132Z,19.50
2019-01-17T00:13:23.970Z,20.03
2019-01-17T00:15:58.282Z,19.03
2019-01-17T00:18:44.099Z,20.50
2019-01-17T00:21:20.674Z,16.83
2019-01-17T00:23:51.551Z,16.67
2019-01-17T00:26:34.207Z,22.23
2019-01-17T00:29:21.109Z,17.50
2019-01-17T00:31:53.975Z,16.90
2019-01-17T00:34:40.817Z,17.17
2019-01-17T00:37:17.623Z,17.53
2019-01-17T00:40:04.018Z,14.17
2019-01-17T00:42:35.848Z,16.70
2019-01-17T00:45:22.493Z,16.57
2019-01-17T00:48:11.441Z,11.73
2019-01-17T00:50:42.571Z,15.70
2019-01-17T00:53:13.443Z,14.50
2019-01-17T00:56:03.394Z,13.90
2019-01-17T00:58:46.003Z,14.77
2019-01-17T01:01:34.637Z,15.47
2019-01-17T01:04:05.715Z,13.10
2019-01-17T01:06:36.590Z,14.00
2019-01-17T01:09:11.428Z,13.93
2019-01-17T01:11:48.447Z,14.17
2019-01-17T01:14:19.352Z,13.40
2019-01-17T01:16:55.976Z,11.43
2019-01-17T01:19:32.532Z,14.17
2019-01-17T01:22:03.431Z,12.33
2019-01-17T01:24:37.013Z,15.07
2019-01-17T01:27:11.475Z,11.53
2019-01-17T01:29:47.904Z,12.10
2019-01-17T01:32:21.510Z,11.97
2019-01-17T01:34:52.471Z,11.33
2019-01-17T01:37:32.427Z,12.43
2019-01-17T01:40:03.370Z,13.10
2019-01-17T01:42:43.974Z,11.83
2019-01-17T01:45:15.911Z,14.67
2019-01-17T01:47:46.891Z,8.90
2019-01-17T01:50:33.853Z,11.17
2019-01-17T01:53:05.323Z,10.57
2019-01-17T01:55:34.567Z,13.37
2019-01-17T01:58:04.159Z,10.17
2019-01-17T02:00:33.402Z,10.30
2019-01-17T02:03:02.640Z,10.90
2019-01-17T02:05:31.939Z,11.77
2019-01-17T02:08:01.193Z,12.93
2019-01-17T02:10:30.435Z,11.87
2019-01-17T02:12:59.673Z,11.83
2019-01-17T02:15:28.978Z,11.10
2019-01-17T02:17:58.221Z,10.23
2019-01-17T02:20:27.474Z,9.47
2019-01-17T02:22:56.711Z,10.17
2019-01-17T02:25:25.968Z,10.97
2019-01-17T02:27:55.218Z,10.63
2019-01-17T02:30:24.460Z,10.63
2019-01-17T02:32:53.718Z,9.90
2019-01-17T02:35:23.038Z,10.77
2019-01-17T02:37:52.308Z,10.10
2019-01-17T02:40:22.449Z,9.73
2019-01-17T02:42:51.739Z,11.13
2019-01-17T02:45:21.013Z,12.50
2019-01-17T02:47:50.312Z,11.23
2019-01-17T02:50:19.631Z,9.47
2019-01-17T02:52:48.952Z,11.40
2019-01-17T02:55:18.216Z,10.77
2019-01-17T02:57:47.524Z,12.97
2019-01-17T03:00:17.501Z,10.70
2019-01-17T03:02:46.761Z,11.77
2019-01-17T03:05:15.997Z,12.80
2019-01-17T03:07:45.272Z,11.07
2019-01-17T03:10:15.953Z,13.40
2019-01-17T03:12:45.269Z,11.63
2019-01-17T03:15:14.581Z,12.17
2019-01-17T03:17:43.860Z,12.00
2019-01-17T03:20:13.748Z,12.13
2019-01-17T03:22:43.002Z,12.93
2019-01-17T03:25:12.705Z,11.23
2019-01-17T03:27:41.983Z,14.03
2019-01-17T03:30:16.763Z,16.27
2019-01-17T03:32:46.013Z,14.10
2019-01-17T03:35:15.243Z,13.67
2019-01-17T03:37:44.496Z,14.17
2019-01-17T03:40:15.598Z,16.30
2019-01-17T03:42:44.858Z,14.20
2019-01-17T03:45:14.579Z,16.57
2019-01-17T03:47:43.831Z,17.50
2019-01-17T03:50:14.422Z,15.03
2019-01-17T03:52:43.862Z,18.37
2019-01-17T03:55:15.869Z,17.20
2019-01-17T03:57:46.162Z,18.07
2019-01-17T04:00:17.793Z,16.37
2019-01-17T04:02:47.178Z,17.37
2019-01-17T04:05:16.473Z,16.60
2019-01-17T04:07:45.832Z,17.73
2019-01-17T04:10:15.933Z,16.63
2019-01-17T04:12:45.313Z,16.90
2019-01-17T04:15:14.728Z,17.27
2019-01-17T04:17:43.995Z,14.27
2019-01-17T04:20:14.871Z,14.07
2019-01-17T04:22:44.198Z,17.73
2019-01-17T04:25:13.446Z,16.57
2019-01-17T04:27:42.821Z,15.37
2019-01-17T04:30:16.832Z,14.83
2019-01-17T04:32:46.159Z,15.13
2019-01-17T04:35:15.634Z,15.87
2019-01-17T04:37:45.819Z,13.83
2019-01-17T04:40:15.083Z,16.90
2019-01-17T04:42:46.228Z,15.07
2019-01-17T04:45:15.561Z,13.90
2019-01-17T04:47:44.793Z,16.87
2019-01-17T04:50:14.801Z,15.47
2019-01-17T04:52:44.040Z,14.27
2019-01-17T04:55:14.242Z,15.73
2019-01-17T04:57:43.496Z,14.97
2019-01-17T05:00:15.512Z,14.27
2019-01-17T05:02:44.754Z,16.50
2019-01-17T05:05:14.083Z,15.50
2019-01-17T05:07:43.508Z,15.37
2019-01-17T05:10:16.970Z,16.80
2019-01-17T05:12:46.354Z,15.20
2019-01-17T05:15:15.685Z,16.87
2019-01-17T05:17:45.866Z,16.43
2019-01-17T05:20:16.079Z,16.60
2019-01-17T05:22:45.390Z,16.93
2019-01-17T05:25:15.689Z,17.90
2019-01-17T05:27:45.069Z,15.80
2019-01-17T05:30:16.382Z,16.83
2019-01-17T05:32:45.687Z,16.53
2019-01-17T05:35:15.117Z,15.37
2019-01-17T05:37:44.412Z,18.83
2019-01-17T05:40:18.682Z,18.43
2019-01-17T05:42:47.916Z,21.10
2019-01-17T05:45:17.656Z,21.57
2019-01-17T05:47:49.001Z,18.63
2019-01-17T05:50:18.645Z,18.07
2019-01-17T05:52:47.883Z,18.70
2019-01-17T05:55:19.985Z,19.47
2019-01-17T05:57:48.170Z,19.33
2019-01-17T06:00:21.744Z,19.73
2019-01-17T06:02:50.973Z,18.60
2019-01-17T06:05:20.317Z,19.90
2019-01-17T06:07:49.542Z,19.27
2019-01-17T06:10:18.806Z,21.90
2019-01-17T06:12:48.077Z,19.00
2019-01-17T06:15:18.958Z,21.03
2019-01-17T06:17:48.231Z,19.50
2019-01-17T06:20:18.139Z,18.53
2019-01-17T06:22:47.490Z,20.83
2019-01-17T06:25:16.800Z,18.47
2019-01-17T06:27:46.143Z,20.67
2019-01-17T06:30:15.948Z,19.40
2019-01-17T06:32:45.193Z,21.40
2019-01-17T06:35:15.644Z,20.83
2019-01-17T06:37:44.978Z,19.07
2019-01-17T06:40:23.940Z,19.77
2019-01-17T06:42:53.176Z,19.03
2019-01-17T06:45:22.422Z,19.63
2019-01-17T06:47:51.746Z,21.97
2019-01-17T06:50:21.016Z,21.10
2019-01-17T06:52:50.261Z,19.63
2019-01-17T06:55:19.531Z,17.57
2019-01-17T06:57:49.065Z,19.97
2019-01-17T07:00:18.436Z,18.90
2019-01-17T07:02:47.803Z,20.07
2019-01-17T07:05:17.058Z,18.47
2019-01-17T07:07:46.326Z,17.20
2019-01-17T07:10:17.484Z,17.40
2019-01-17T07:12:46.751Z,18.57
2019-01-17T07:15:16.080Z,16.87
2019-01-17T07:17:45.333Z,15.67
2019-01-17T07:20:15.920Z,16.57
2019-01-17T07:22:45.244Z,20.97
2019-01-17T07:25:14.564Z,16.17
2019-01-17T07:27:43.814Z,16.70
2019-01-17T07:30:19.616Z,18.37
2019-01-17T07:32:49.861Z,17.30
2019-01-17T07:35:19.109Z,15.57
2019-01-17T07:37:48.367Z,15.83
2019-01-17T07:40:17.675Z,16.47
2019-01-17T07:42:46.928Z,17.27
2019-01-17T07:45:22.531Z,19.93
2019-01-17T07:47:51.778Z,18.07
2019-01-17T07:50:22.025Z,16.70
2019-01-17T07:52:51.253Z,17.10
2019-01-17T07:55:20.498Z,16.57
2019-01-17T07:57:49.800Z,17.17
2019-01-17T08:00:21.284Z,18.60
2019-01-17T08:02:50.515Z,14.20
2019-01-17T08:05:19.935Z,14.20
2019-01-17T08:07:49.286Z,17.47
2019-01-17T08:10:20.413Z,16.00
2019-01-17T08:12:49.752Z,17.73
2019-01-17T08:15:19.057Z,18.23
2019-01-17T08:17:48.364Z,18.43
2019-01-17T08:20:22.521Z,18.77
2019-01-17T08:22:52.746Z,19.93
2019-01-17T08:25:22.086Z,22.20
2019-01-17T08:27:51.483Z,20.23
2019-01-17T08:30:23.066Z,22.80
2019-01-17T08:32:52.473Z,20.47
2019-01-17T08:35:21.717Z,20.03
2019-01-17T08:37:50.966Z,22.80
2019-01-17T08:40:23.381Z,21.90
2019-01-17T08:42:54.562Z,21.13
2019-01-17T08:45:31.632Z,19.33
2019-01-17T08:48:00.881Z,19.13
2019-01-17T08:50:30.124Z,17.07
2019-01-17T08:52:59.391Z,17.37
2019-01-17T08:55:28.720Z,18.60
2019-01-17T08:57:57.970Z,18.73
2019-01-17T09:00:27.381Z,18.00
2019-01-17T09:02:56.646Z,18.03
2019-01-17T09:05:25.879Z,17.37
2019-01-17T09:07:55.141Z,18.20
2019-01-17T09:10:28.294Z,20.10
2019-01-17T09:12:57.538Z,16.93
2019-01-17T09:15:29.584Z,17.10
2019-01-17T09:17:58.914Z,18.03
2019-01-17T09:20:28.204Z,16.80
2019-01-17T09:22:57.461Z,14.83
2019-01-17T09:25:26.764Z,13.23
2019-01-17T09:27:56.016Z,12.50
2019-01-17T09:30:25.342Z,14.77
2019-01-17T09:32:54.571Z,13.10
2019-01-17T09:35:23.823Z,13.30
2019-01-17T09:37:53.049Z,13.73
2019-01-17T09:40:23.074Z,16.43
2019-01-17T09:42:53.202Z,11.63
2019-01-17T09:45:22.448Z,15.80
2019-01-17T09:47:57.544Z,14.03
2019-01-17T09:50:26.974Z,17.63
2019-01-17T09:52:58.193Z,15.03
2019-01-17T09:55:28.427Z,15.13
2019-01-17T09:57:57.655Z,9.40
2019-01-17T10:00:30.100Z,11.40
2019-01-17T10:02:59.483Z,10.17
2019-01-17T10:05:29.724Z,12.93
2019-01-17T10:07:59.017Z,10.93
2019-01-17T10:10:28.267Z,10.50
2019-01-17T10:12:57.611Z,9.47
2019-01-17T10:15:35.815Z,11.47
2019-01-17T10:18:36.461Z,7.90
2019-01-17T10:21:32.752Z,8.20
2019-01-17T10:24:19.853Z,5.50
2019-01-17T10:27:13.321Z,6.27
2019-01-17T10:30:13.757Z,4.63
2019-01-17T10:33:01.932Z,3.70
2019-01-17T10:35:38.411Z,2.40
2019-01-17T10:38:28.450Z,5.23
2019-01-17T10:41:29.045Z,2.43
2019-01-17T10:44:20.181Z,2.97
2019-01-17T10:47:14.812Z,3.97
2019-01-17T10:49:53.051Z,1.70
2019-01-17T10:52:37.230Z,3.17
2019-01-17T10:55:25.953Z,3.40
2019-01-17T10:58:04.291Z,3.53
2019-01-17T11:00:38.739Z,2.00
2019-01-17T11:03:33.162Z,2.53
2019-01-17T11:06:30.007Z,2.10
2019-01-17T11:09:12.153Z,2.73
2019-01-17T11:12:06.713Z,6.23
2019-01-17T11:14:44.904Z,3.53
2019-01-17T11:17:17.302Z,3.30
2019-01-17T11:19:57.803Z,3.77
2019-01-17T11:22:45.049Z,3.40
2019-01-17T11:25:20.549Z,3.17
2019-01-17T11:28:27.473Z,4.23
2019-01-17T11:31:17.876Z,4.50
2019-01-17T11:34:07.758Z,4.13
2019-01-17T11:36:58.801Z,4.73
2019-01-17T11:39:40.111Z,3.60
2019-01-17T11:42:22.523Z,3.13
2019-01-17T11:44:57.841Z,4.17
2019-01-17T11:47:50.537Z,4.70
2019-01-17T11:50:51.624Z,4.93
2019-01-17T11:53:32.891Z,4.90
2019-01-17T11:56:27.554Z,6.40
2019-01-17T11:59:14.897Z,5.93
2019-01-17T12:02:06.314Z,5.73
2019-01-17T12:04:34.511Z,8.10
2019-01-17T12:07:10.263Z,4.93
2019-01-17T12:09:39.492Z,6.07
2019-01-17T12:12:09.684Z,5.03
2019-01-17T12:14:38.915Z,4.87
2019-01-17T12:17:08.176Z,3.97
2019-01-17T12:19:37.430Z,3.43
2019-01-17T12:22:06.831Z,4.57
2019-01-17T12:24:38.044Z,4.97
2019-01-17T12:27:07.267Z,5.33
2019-01-17T12:29:36.516Z,6.07
2019-01-17T12:32:05.742Z,5.07
2019-01-17T12:34:35.039Z,6.43
2019-01-17T12:37:04.349Z,6.53
2019-01-17T12:39:33.591Z,4.10
2019-01-17T12:42:02.820Z,4.43
2019-01-17T12:44:33.022Z,5.53
2019-01-17T12:47:02.261Z,5.90
2019-01-17T12:49:31.506Z,8.43
2019-01-17T12:52:00.731Z,5.80
2019-01-17T12:54:29.989Z,5.50
2019-01-17T12:57:00.196Z,7.70
2019-01-17T12:59:29.428Z,5.63
2019-01-17T13:01:58.667Z,4.77
2019-01-17T13:04:28.915Z,5.57
2019-01-17T13:06:59.149Z,7.10
2019-01-17T13:09:28.383Z,5.00
2019-01-17T13:11:57.638Z,3.87
2019-01-17T13:14:39.937Z,4.10
2019-01-17T13:17:09.170Z,6.33
2019-01-17T13:19:38.409Z,3.30
2019-01-17T13:22:07.717Z,4.03
2019-01-17T13:24:36.935Z,4.73
2019-01-17T13:27:06.237Z,3.90
2019-01-17T13:29:35.503Z,3.03
2019-01-17T13:32:04.802Z,4.27
2019-01-17T13:34:34.082Z,3.47
2019-01-17T13:37:03.328Z,3.30
2019-01-17T13:39:32.573Z,4.30
2019-01-17T13:42:02.744Z,5.70
2019-01-17T13:44:38.114Z,3.13
2019-01-17T13:47:07.369Z,5.00
2019-01-17T13:49:42.316Z,3.30
2019-01-17T13:52:11.546Z,5.20
2019-01-17T13:54:40.812Z,5.60
2019-01-17T13:57:10.030Z,3.37
2019-01-17T13:59:39.284Z,5.53
2019-01-17T14:02:08.589Z,3.73
2019-01-17T14:04:37.829Z,4.70
2019-01-17T14:07:07.041Z,5.53
2019-01-17T14:09:36.296Z,4.00
2019-01-17T14:12:05.530Z,3.50
2019-01-17T14:14:35.738Z,5.93
2019-01-17T14:17:04.960Z,5.30
2019-01-17T14:19:34.212Z,7.73
2019-01-17T14:22:03.516Z,3.67
2019-01-17T14:24:32.742Z,4.37
2019-01-17T14:27:02.941Z,6.23
2019-01-17T14:29:32.171Z,3.73
2019-01-17T14:32:01.415Z,7.20
2019-01-17T14:34:31.564Z,3.23
2019-01-17T14:37:00.952Z,3.90
2019-01-17T14:39:30.176Z,9.97
2019-01-17T14:42:00.417Z,3.80
2019-01-17T14:44:29.658Z,4.47
2019-01-17T14:46:58.904Z,5.10
2019-01-17T14:49:28.133Z,3.33
2019-01-17T14:51:57.376Z,4.20
2019-01-17T14:54:26.617Z,4.07
2019-01-17T14:56:55.881Z,5.47
2019-01-17T14:59:25.102Z,5.80
2019-01-17T15:01:55.767Z,4.87
2019-01-17T15:04:25.871Z,5.90
2019-01-17T15:06:56.107Z,4.13
2019-01-17T15:09:25.344Z,6.63
2019-01-17T15:11:54.561Z,7.60
2019-01-17T15:14:23.787Z,5.10
2019-01-17T15:16:53.019Z,3.83
2019-01-17T15:19:22.298Z,6.53
2019-01-17T15:21:51.510Z,5.37
2019-01-17T15:24:20.764Z,6.97
2019-01-17T15:26:50.000Z,10.70
2019-01-17T15:29:19.248Z,11.80
2019-01-17T15:31:48.502Z,12.47
2019-01-17T15:34:18.717Z,10.57
2019-01-17T15:36:47.940Z,10.00
2019-01-17T15:39:17.185Z,18.27
2019-01-17T15:41:47.398Z,13.13
2019-01-17T15:44:16.650Z,16.07
2019-01-17T15:46:45.940Z,16.30
2019-01-17T15:49:15.180Z,9.13
2019-01-17T15:51:44.418Z,7.87
2019-01-17T15:54:13.661Z,9.97
2019-01-17T15:56:42.914Z,10.80
2019-01-17T15:59:12.145Z,6.57
2019-01-17T16:01:41.382Z,7.60
2019-01-17T16:04:10.634Z,13.37
2019-01-17T16:06:40.824Z,14.13
2019-01-17T16:09:10.223Z,12.57
2019-01-17T16:11:39.826Z,16.43
2019-01-17T16:14:09.065Z,12.60
2019-01-17T16:16:40.319Z,9.63
2019-01-17T16:19:10.508Z,15.53
2019-01-17T16:21:39.766Z,15.93
2019-01-17T16:24:09.012Z,9.33
2019-01-17T16:26:38.270Z,10.53
2019-01-17T16:29:07.525Z,7.60
2019-01-17T16:31:36.771Z,6.00
2019-01-17T16:34:06.076Z,9.83
2019-01-17T16:36:35.322Z,10.37
2019-01-17T16:39:06.873Z,4.90
2019-01-17T16:41:36.160Z,6.20
2019-01-17T16:44:05.468Z,8.23
2019-01-17T16:46:34.705Z,8.13
2019-01-17T16:49:03.969Z,7.43
2019-01-17T16:51:33.219Z,4.77
2019-01-17T16:54:02.551Z,8.23
2019-01-17T16:56:33.675Z,8.63
2019-01-17T16:59:03.971Z,5.30
2019-01-17T17:01:33.209Z,5.13
2019-01-17T17:04:02.459Z,8.17
2019-01-17T17:06:31.680Z,7.97
2019-01-17T17:09:00.917Z,8.87
2019-01-17T17:11:30.155Z,7.40
2019-01-17T17:13:59.395Z,8.53
2019-01-17T17:16:28.647Z,9.30
2019-01-17T17:19:04.728Z,8.57
2019-01-17T17:21:33.968Z,7.10
2019-01-17T17:24:03.231Z,9.50
2019-01-17T17:26:32.479Z,8.53
2019-01-17T17:29:01.721Z,12.93
2019-01-17T17:31:30.957Z,12.23
2019-01-17T17:34:00.200Z,8.60
2019-01-17T17:36:29.448Z,7.20
2019-01-17T17:38:58.712Z,9.90
2019-01-17T17:41:28.883Z,9.57
2019-01-17T17:43:58.132Z,7.33
2019-01-17T17:46:27.374Z,8.73
2019-01-17T17:48:57.618Z,7.70
2019-01-17T17:51:26.873Z,22.90
2019-01-17T17:53:56.121Z,5.43
2019-01-17T17:56:26.340Z,6.70
2019-01-17T17:58:55.581Z,5.43
2019-01-17T18:01:25.209Z,6.03
2019-01-17T18:03:55.329Z,6.17
2019-01-17T18:06:24.571Z,8.63
2019-01-17T18:08:53.807Z,6.07
2019-01-17T18:11:23.042Z,6.33
2019-01-17T18:13:52.327Z,6.77
2019-01-17T18:16:21.581Z,6.03
2019-01-17T18:18:50.816Z,5.47
2019-01-17T18:21:19.951Z,5.97
2019-01-17T18:23:51.168Z,5.27
2019-01-17T18:26:20.416Z,5.57
2019-01-17T18:28:49.651Z,4.70
2019-01-17T18:31:18.890Z,6.33
2019-01-17T18:33:48.111Z,4.97
2019-01-17T18:36:17.348Z,9.10
2019-01-17T18:38:46.601Z,12.10
2019-01-17T18:41:15.831Z,10.67
2019-01-17T18:43:45.108Z,12.30
2019-01-17T18:46:15.313Z,12.43
2019-01-17T18:48:44.559Z,9.93
2019-01-17T18:51:13.800Z,8.97
2019-01-17T18:53:44.046Z,9.30
2019-01-17T18:56:13.268Z,5.17
2019-01-17T18:58:42.507Z,9.53
2019-01-17T19:01:11.791Z,7.93
2019-01-17T19:03:41.192Z,8.20
2019-01-17T19:06:11.702Z,6.20
2019-01-17T19:08:40.948Z,10.47
2019-01-17T19:11:11.191Z,7.90
2019-01-17T19:13:41.352Z,8.17
2019-01-17T19:16:10.599Z,17.00
2019-01-17T19:18:39.846Z,10.33
2019-01-17T19:21:09.113Z,9.40
2019-01-17T19:23:38.332Z,12.83
2019-01-17T19:26:07.598Z,19.70
2019-01-17T19:28:37.810Z,9.73
2019-01-17T19:31:07.046Z,16.70
2019-01-17T19:33:36.346Z,14.03
2019-01-17T19:36:07.648Z,8.27
2019-01-17T19:38:36.950Z,10.87
2019-01-17T19:41:06.190Z,19.20
2019-01-17T19:43:36.373Z,13.70
2019-01-17T19:46:05.692Z,10.73
2019-01-17T19:48:34.948Z,15.63
2019-01-17T19:51:04.202Z,10.23
2019-01-17T19:53:33.447Z,17.70
2019-01-17T19:56:02.698Z,11.40
2019-01-17T19:58:31.949Z,13.70
2019-01-17T20:01:01.196Z,13.57
2019-01-17T20:03:30.445Z,12.37
2019-01-17T20:05:59.679Z,17.57
2019-01-17T20:08:29.025Z,19.30
2019-01-17T20:10:58.283Z,19.37
2019-01-17T20:13:27.533Z,16.03
2019-01-17T20:15:56.774Z,19.50
2019-01-17T20:18:26.006Z,22.93
2019-01-17T20:20:55.249Z,20.40
2019-01-17T20:23:24.514Z,17.30
2019-01-17T20:25:53.755Z,22.23
2019-01-17T20:28:23.924Z,17.03
2019-01-17T20:30:54.154Z,16.77
2019-01-17T20:33:23.407Z,15.07
2019-01-17T20:35:52.666Z,21.23
2019-01-17T20:38:21.917Z,19.07
2019-01-17T20:40:51.237Z,22.37
2019-01-17T20:43:22.033Z,21.93
2019-01-17T20:45:53.206Z,23.10
2019-01-17T20:48:22.464Z,19.83
2019-01-17T20:50:52.617Z,21.87
2019-01-17T20:53:21.880Z,24.80
2019-01-17T20:55:51.147Z,25.50
2019-01-17T20:58:20.417Z,16.33
2019-01-17T21:01:01.300Z,14.83
2019-01-17T21:03:30.558Z,16.13
2019-01-17T21:05:59.810Z,14.90
2019-01-17T21:08:29.068Z,16.27
2019-01-17T21:16:56.886Z,17.87
2019-01-17T21:19:26.175Z,16.53
2019-01-17T21:21:55.427Z,15.80
2019-01-17T21:24:24.725Z,17.40
2019-01-17T21:26:53.951Z,16.87
2019-01-17T21:29:23.206Z,18.00
2019-01-17T21:31:52.463Z,15.83
2019-01-17T21:34:21.717Z,15.13
2019-01-17T21:36:51.011Z,14.87
2019-01-17T21:39:20.268Z,15.67
2019-01-17T21:41:50.577Z,17.47
2019-01-17T21:44:19.851Z,16.10
2019-01-17T21:46:51.060Z,13.57
2019-01-17T21:49:21.268Z,15.97
2019-01-17T21:51:51.518Z,13.97
2019-01-17T21:54:20.752Z,14.37
2019-01-17T21:56:50.011Z,13.97
2019-01-17T21:59:19.262Z,12.90
2019-01-17T22:01:48.513Z,12.53
2019-01-17T22:04:17.752Z,10.97
2019-01-17T22:06:47.906Z,13.20
2019-01-17T22:09:17.166Z,9.87
2019-01-17T22:11:46.401Z,10.47
2019-01-17T22:14:15.659Z,9.60
2019-01-17T22:16:45.826Z,8.43
2019-01-17T22:19:17.055Z,8.77
2019-01-17T22:21:46.294Z,7.57
2019-01-17T22:24:15.550Z,7.83
2019-01-17T22:26:44.789Z,7.90
2019-01-17T22:29:14.019Z,7.33
2019-01-17T22:31:44.268Z,6.03
2019-01-17T22:34:15.451Z,5.87
2019-01-17T22:36:44.719Z,8.10
2019-01-17T22:39:13.956Z,5.63
2019-01-17T22:41:43.202Z,6.17
2019-01-17T22:44:12.496Z,5.87
2019-01-17T22:46:41.760Z,6.57
2019-01-17T22:49:11.046Z,7.40
2019-01-17T22:51:40.302Z,7.40
2019-01-17T22:54:10.463Z,5.77
2019-01-17T22:56:39.838Z,7.20
2019-01-17T22:59:09.497Z,6.97
2019-01-17T23:01:38.847Z,9.00
2019-01-17T23:04:08.127Z,8.57
2019-01-17T23:06:37.434Z,11.07
2019-01-17T23:09:07.417Z,8.97
2019-01-17T23:11:36.669Z,9.87
2019-01-17T23:14:06.991Z,9.77
2019-01-17T23:16:36.217Z,10.40
2019-01-17T23:19:05.691Z,8.67
2019-01-17T23:21:34.934Z,9.03
2019-01-17T23:24:04.307Z,12.30
2019-01-17T23:26:33.538Z,10.23
2019-01-17T23:29:02.875Z,12.47
2019-01-17T23:31:32.121Z,11.63
2019-01-17T23:34:08.096Z,10.90
2019-01-17T23:36:37.377Z,9.93
2019-01-17T23:39:08.240Z,10.80
2019-01-17T23:41:37.497Z,11.60
2019-01-17T23:44:06.776Z,12.73
2019-01-17T23:46:36.029Z,12.43
2019-01-17T23:49:05.294Z,11.13
2019-01-17T23:51:34.544Z,14.77
2019-01-17T23:54:04.833Z,12.00
2019-01-17T23:56:34.091Z,12.10
2019-01-17T23:59:03.348Z,11.10
